createdAt,value
2019-05-11T00:03:44.682Z,65.44
2019-05-11T00:06:18.948Z,65.33
2019-05-11T00:08:53.392Z,65.32
2019-05-11T00:11:27.952Z,65.56
2019-05-11T00:14:02.286Z,65.46
2019-05-11T00:16:36.740Z,65.46
2019-05-11T00:19:11.116Z,65.06
2019-05-11T00:21:45.667Z,64.41
2019-05-11T00:24:20.130Z,64.41
2019-05-11T00:26:54.699Z,64.45
2019-05-11T00:29:28.955Z,64.66
2019-05-11T00:32:03.666Z,64.61
2019-05-11T00:34:37.963Z,65.08
2019-05-11T00:37:12.323Z,64.75
2019-05-11T00:39:46.838Z,64.67
2019-05-11T00:42:19.695Z,64.29
2019-05-11T00:44:53.872Z,64.05
2019-05-11T00:47:27.861Z,63.72
2019-05-11T00:50:01.958Z,63.72
2019-05-11T00:52:36.336Z,64.13
2019-05-11T00:55:11.298Z,64.13
2019-05-11T00:57:45.720Z,64.39
2019-05-11T01:00:18.860Z,64.17
2019-05-11T01:02:52.944Z,63.95
2019-05-11T01:05:28.949Z,63.74
2019-05-11T01:08:03.383Z,64.56
2019-05-11T01:10:42.074Z,64.56
2019-05-11T01:13:13.869Z,64.46
2019-05-11T01:15:47.067Z,64.75
2019-05-11T01:18:22.302Z,64.75
2019-05-11T01:20:56.717Z,64.81
2019-05-11T01:23:29.687Z,65.10
2019-05-11T01:26:03.933Z,65.15
2019-05-11T01:28:38.281Z,65.01
2019-05-11T01:31:12.661Z,65.17
2019-05-11T01:33:47.119Z,65.24
2019-05-11T01:36:21.770Z,64.04
2019-05-11T01:38:56.133Z,64.04
2019-05-11T01:41:30.657Z,64.73
2019-05-11T01:44:05.138Z,64.84
2019-05-11T01:46:39.699Z,65.01
2019-05-11T01:49:14.123Z,65.01
2019-05-11T01:51:48.305Z,64.97
2019-05-11T01:54:22.681Z,64.97
2019-05-11T01:56:57.126Z,64.69
2019-05-11T01:59:31.623Z,64.12
2019-05-11T02:02:06.110Z,64.06
2019-05-11T02:04:40.648Z,64.20
2019-05-11T02:07:15.074Z,64.20
2019-05-11T02:09:49.668Z,63.69
2019-05-11T02:12:23.953Z,63.69
2019-05-11T02:14:58.311Z,63.52
2019-05-11T02:17:32.756Z,63.52
2019-05-11T02:20:06.041Z,63.47
2019-05-11T02:22:39.864Z,63.42
2019-05-11T02:25:14.278Z,63.58
2019-05-11T02:27:48.719Z,63.74
2019-05-11T02:30:23.259Z,63.65
2019-05-11T02:33:00.645Z,63.56
2019-05-11T02:35:33.703Z,63.32
2019-05-11T02:38:07.770Z,63.30
2019-05-11T02:40:42.120Z,62.79
2019-05-11T02:43:16.598Z,62.83
2019-05-11T02:45:51.066Z,62.83
2019-05-11T02:48:25.602Z,62.58
2019-05-11T02:51:00.319Z,62.58
2019-05-11T02:53:36.716Z,62.65
2019-05-11T02:56:10.943Z,62.73
2019-05-11T02:58:46.251Z,62.62
2019-05-11T03:01:21.720Z,62.42
2019-05-11T03:03:56.064Z,62.21
2019-05-11T03:06:30.317Z,61.89
2019-05-11T03:09:06.267Z,61.89
2019-05-11T03:11:54.968Z,61.78
2019-05-11T03:14:16.894Z,61.67
2019-05-11T03:16:52.663Z,61.80
2019-05-11T03:19:26.936Z,61.55
2019-05-11T03:22:01.122Z,61.73
2019-05-11T03:24:35.607Z,61.52
2019-05-11T03:27:09.934Z,61.33
2019-05-11T03:29:44.282Z,61.33
2019-05-11T03:32:18.730Z,61.16
2019-05-11T03:34:52.949Z,61.17
2019-05-11T03:37:27.343Z,61.44
2019-05-11T03:42:41.099Z,60.90
2019-05-11T03:45:14.565Z,61.07
2019-05-11T03:47:48.891Z,60.81
2019-05-11T03:50:23.278Z,60.43
2019-05-11T03:52:57.610Z,60.43
2019-05-11T03:55:31.950Z,60.45
2019-05-11T03:58:07.277Z,60.35
2019-05-11T04:00:41.745Z,60.08
2019-05-11T04:03:14.647Z,60.05
2019-05-11T04:05:48.863Z,60.09
2019-05-11T04:08:21.853Z,60.09
2019-05-11T04:10:55.942Z,59.79
2019-05-11T04:13:30.246Z,59.20
2019-05-11T04:16:04.640Z,58.61
2019-05-11T04:18:38.932Z,58.70
2019-05-11T04:21:13.279Z,58.55
2019-05-11T04:23:48.753Z,58.38
2019-05-11T04:26:23.011Z,58.38
2019-05-11T04:28:57.333Z,58.61
2019-05-11T04:31:31.870Z,58.85
2019-05-11T04:34:04.861Z,58.62
2019-05-11T04:36:39.122Z,58.34
2019-05-11T04:39:13.711Z,58.06
2019-05-11T04:41:47.923Z,58.02
2019-05-11T04:44:22.270Z,58.35
2019-05-11T04:46:56.675Z,57.84
2019-05-11T04:49:31.012Z,57.89
2019-05-11T04:52:05.334Z,57.36
2019-05-11T04:54:39.707Z,57.36
2019-05-11T04:57:15.115Z,57.55
2019-05-11T04:59:49.670Z,57.40
2019-05-11T05:02:27.177Z,57.40
2019-05-11T05:05:00.033Z,57.54
2019-05-11T05:07:34.303Z,57.55
2019-05-11T05:10:09.060Z,57.55
2019-05-11T05:12:50.479Z,57.11
2019-05-11T05:15:19.314Z,57.11
2019-05-11T05:17:53.682Z,57.02
2019-05-11T05:20:27.941Z,57.10
2019-05-11T05:23:00.654Z,57.48
2019-05-11T05:25:34.935Z,57.61
2019-05-11T05:28:09.271Z,57.48
2019-05-11T05:30:43.940Z,57.47
2019-05-11T05:33:16.856Z,57.34
2019-05-11T05:35:50.941Z,57.16
2019-05-11T05:38:25.262Z,57.22
2019-05-11T05:40:59.633Z,56.68
2019-05-11T05:43:33.942Z,56.70
2019-05-11T05:46:09.273Z,56.94
2019-05-11T05:48:43.689Z,56.21
2019-05-11T05:51:17.929Z,55.97
2019-05-11T05:53:50.982Z,55.70
2019-05-11T05:56:23.692Z,55.90
2019-05-11T05:58:57.926Z,56.24
2019-05-11T06:01:30.982Z,56.31
2019-05-11T06:04:03.799Z,56.84
2019-05-11T06:06:37.998Z,56.37
2019-05-11T06:09:12.341Z,56.21
2019-05-11T06:11:46.654Z,56.00
2019-05-11T06:14:20.946Z,55.57
2019-05-11T06:16:54.050Z,55.42
2019-05-11T06:19:28.337Z,55.59
2019-05-11T06:22:02.894Z,55.41
2019-05-11T06:24:35.861Z,54.98
2019-05-11T06:27:09.947Z,54.88
2019-05-11T06:29:42.862Z,53.95
2019-05-11T06:32:16.945Z,54.30
2019-05-11T06:34:49.838Z,54.43
2019-05-11T06:37:24.109Z,54.46
2019-05-11T06:39:58.658Z,54.78
2019-05-11T06:42:33.122Z,54.78
2019-05-11T06:45:08.685Z,55.88
2019-05-11T06:47:43.093Z,56.05
2019-05-11T06:50:17.857Z,56.51
2019-05-11T06:52:50.857Z,56.91
2019-05-11T06:55:25.200Z,58.12
2019-05-11T06:57:59.620Z,58.94
2019-05-11T07:00:33.946Z,58.94
2019-05-11T07:03:06.871Z,59.59
2019-05-11T07:05:41.288Z,59.67
2019-05-11T07:08:15.736Z,60.31
2019-05-11T07:10:49.947Z,61.85
2019-05-11T07:13:24.267Z,63.04
2019-05-11T07:15:58.713Z,63.31
2019-05-11T07:18:31.651Z,63.27
2019-05-11T07:21:05.935Z,64.00
2019-05-11T07:23:38.890Z,63.65
2019-05-11T07:26:11.670Z,64.23
2019-05-11T07:28:45.890Z,63.96
2019-05-11T07:31:21.103Z,64.79
2019-05-11T07:33:55.291Z,64.82
2019-05-11T07:36:29.866Z,64.82
2019-05-11T07:39:02.991Z,65.46
2019-05-11T07:41:35.781Z,65.66
2019-05-11T07:44:10.218Z,65.46
2019-05-11T07:46:44.837Z,64.82
2019-05-11T07:49:19.248Z,63.41
2019-05-11T07:51:54.276Z,62.80
2019-05-11T07:54:28.707Z,63.52
2019-05-11T07:57:01.928Z,65.15
2019-05-11T07:59:34.861Z,65.17
2019-05-11T08:02:09.068Z,65.35
2019-05-11T08:04:43.633Z,65.96
2019-05-11T08:07:18.251Z,65.96
2019-05-11T08:09:52.761Z,66.13
2019-05-11T08:12:28.273Z,66.46
2019-05-11T08:15:09.015Z,66.90
2019-05-11T08:17:38.176Z,66.84
2019-05-11T08:20:13.663Z,66.42
2019-05-11T08:22:48.366Z,66.70
2019-05-11T08:25:23.943Z,66.58
2019-05-11T08:27:58.936Z,65.93
2019-05-11T08:30:33.702Z,65.42
2019-05-11T08:33:08.650Z,65.42
2019-05-11T08:35:41.855Z,65.42
2019-05-11T08:38:18.019Z,65.48
2019-05-11T08:40:52.304Z,65.68
2019-05-11T08:43:28.509Z,65.55
2019-05-11T08:46:02.863Z,65.41
2019-05-11T08:48:38.829Z,65.08
2019-05-11T08:51:13.321Z,64.37
2019-05-11T08:53:48.260Z,64.38
2019-05-11T08:56:22.789Z,63.10
2019-05-11T08:58:58.845Z,63.37
2019-05-11T09:01:33.661Z,63.31
2019-05-11T09:04:08.968Z,63.31
2019-05-11T09:06:43.647Z,63.45
2019-05-11T09:09:18.255Z,63.89
2019-05-11T09:11:52.680Z,64.21
2019-05-11T09:14:28.389Z,63.70
2019-05-11T09:17:02.939Z,63.43
2019-05-11T09:19:38.825Z,64.06
2019-05-11T09:22:13.357Z,64.54
2019-05-11T09:24:47.963Z,65.17
2019-05-11T09:27:22.406Z,64.55
2019-05-11T09:29:58.675Z,65.08
2019-05-11T09:32:33.868Z,65.28
2019-05-11T09:35:29.203Z,65.21
2019-05-11T09:39:38.352Z,65.66
2019-05-11T09:42:12.820Z,65.57
2019-05-11T09:44:48.576Z,65.57
2019-05-11T09:47:24.289Z,66.12
2019-05-11T09:49:58.924Z,66.11
2019-05-11T09:52:33.268Z,66.09
2019-05-11T09:55:08.736Z,66.69
2019-05-11T09:57:43.711Z,66.69
2019-05-11T10:00:18.277Z,66.34
2019-05-11T10:02:53.272Z,66.58
2019-05-11T10:05:29.275Z,66.44
2019-05-11T10:08:03.940Z,66.29
2019-05-11T10:10:38.537Z,66.18
2019-05-11T10:13:13.285Z,66.59
2019-05-11T10:16:00.996Z,66.36
2019-05-11T10:18:25.252Z,66.39
2019-05-11T10:20:59.924Z,66.57
2019-05-11T10:23:34.406Z,66.27
2019-05-11T10:27:30.009Z,66.31
2019-05-11T10:30:04.689Z,66.42
2019-05-11T10:32:40.380Z,66.13
2019-05-11T10:35:14.882Z,66.13
2019-05-11T10:37:48.116Z,65.68
2019-05-11T10:40:22.303Z,65.95
2019-05-11T10:42:58.795Z,65.70
2019-05-11T10:45:32.848Z,65.41
2019-05-11T10:48:08.790Z,66.20
2019-05-11T10:50:43.337Z,66.02
2019-05-11T10:53:18.519Z,66.11
2019-05-11T10:55:53.352Z,66.37
2019-05-11T10:58:28.872Z,66.50
2019-05-11T11:01:01.859Z,66.31
2019-05-11T11:03:34.697Z,65.75
2019-05-11T11:06:08.948Z,66.14
2019-05-11T11:08:43.332Z,66.14
2019-05-11T11:11:18.452Z,65.54
2019-05-11T11:13:53.126Z,65.29
2019-05-11T11:16:36.888Z,65.00
2019-05-11T11:19:03.906Z,64.61
2019-05-11T11:21:38.478Z,64.47
2019-05-11T11:26:08.227Z,64.62
2019-05-11T11:28:42.328Z,64.44
2019-05-11T11:31:18.774Z,64.41
2019-05-11T11:33:55.514Z,64.51
2019-05-11T11:36:29.259Z,64.99
2019-05-11T11:39:05.118Z,64.74
2019-05-11T11:41:39.637Z,65.26
2019-05-11T11:44:13.957Z,65.26
2019-05-11T11:46:54.653Z,64.79
2019-05-11T11:49:24.277Z,64.85
2019-05-11T11:51:58.723Z,64.17
2019-05-11T11:54:33.045Z,64.20
2019-05-11T11:57:07.825Z,63.09
2019-05-11T11:59:42.286Z,63.09
2019-05-11T12:02:18.850Z,62.71
2019-05-11T12:04:52.704Z,62.45
2019-05-11T12:07:28.563Z,60.88
2019-05-11T12:10:02.941Z,59.43
2019-05-11T12:12:38.671Z,59.43
2019-05-11T12:15:12.281Z,58.09
2019-05-11T12:17:48.286Z,55.25
2019-05-11T12:20:23.764Z,55.25
2019-05-11T12:22:58.731Z,56.37
2019-05-11T12:25:32.616Z,56.66
2019-05-11T12:28:08.026Z,53.99
2019-05-11T12:30:42.666Z,53.36
2019-05-11T12:33:18.716Z,53.36
2019-05-11T12:35:52.369Z,53.26
2019-05-11T12:38:27.704Z,51.80
2019-05-11T12:41:00.693Z,51.80
2019-05-11T12:43:34.946Z,50.56
2019-05-11T12:46:09.139Z,49.42
2019-05-11T12:48:43.653Z,48.48
2019-05-11T12:51:18.654Z,48.48
2019-05-11T12:53:51.838Z,49.87
2019-05-11T12:56:27.702Z,49.64
2019-05-11T12:59:02.117Z,49.36
2019-05-11T13:01:38.232Z,51.67
2019-05-11T13:04:12.862Z,51.67
2019-05-11T13:06:47.871Z,52.91
2019-05-11T13:09:22.698Z,53.63
2019-05-11T13:11:58.809Z,54.18
2019-05-11T13:14:32.930Z,55.06
2019-05-11T13:17:07.820Z,55.56
2019-05-11T13:19:42.269Z,56.40
2019-05-11T13:22:18.334Z,58.44
2019-05-11T13:24:52.936Z,58.44
2019-05-11T13:27:29.939Z,59.22
2019-05-11T13:30:04.267Z,60.26
2019-05-11T13:32:38.745Z,60.75
2019-05-11T13:35:11.778Z,61.25
2019-05-11T13:37:48.010Z,61.07
2019-05-11T13:40:20.863Z,59.97
2019-05-11T13:42:54.257Z,60.78
2019-05-11T13:45:28.701Z,60.87
2019-05-11T13:48:03.931Z,61.43
2019-05-11T13:50:38.764Z,61.43
2019-05-11T13:53:11.759Z,62.32
2019-05-11T13:55:48.145Z,61.45
2019-05-11T13:58:22.276Z,60.50
2019-05-11T14:00:58.483Z,59.88
2019-05-11T14:03:32.782Z,59.44
2019-05-11T14:06:08.725Z,59.60
2019-05-11T14:08:41.858Z,56.70
2019-05-11T14:11:18.282Z,56.90
2019-05-11T14:13:52.938Z,56.90
2019-05-11T14:16:27.795Z,54.88
2019-05-11T14:19:02.270Z,54.88
2019-05-11T14:21:38.448Z,56.43
2019-05-11T14:24:12.871Z,55.97
2019-05-11T14:26:45.835Z,54.51
2019-05-11T14:29:21.073Z,56.46
2019-05-11T14:31:57.756Z,56.94
2019-05-11T14:34:31.706Z,57.21
2019-05-11T14:37:08.594Z,57.21
2019-05-11T14:39:42.291Z,55.83
2019-05-11T14:42:21.945Z,55.69
2019-05-11T14:44:52.752Z,54.79
2019-05-11T14:47:28.278Z,54.79
2019-05-11T14:50:02.909Z,56.12
2019-05-11T14:52:38.869Z,55.93
2019-05-11T14:55:13.677Z,56.87
2019-05-11T14:57:48.724Z,56.87
2019-05-11T15:00:23.383Z,55.94
2019-05-11T15:02:58.460Z,56.68
2019-05-11T15:05:32.930Z,56.92
2019-05-11T15:08:08.741Z,56.79
2019-05-11T15:10:43.275Z,56.79
2019-05-11T15:13:18.519Z,57.58
2019-05-11T15:15:51.705Z,58.59
2019-05-11T15:18:36.068Z,59.15
2019-05-11T15:21:01.955Z,58.83
2019-05-11T15:23:37.846Z,59.09
2019-05-11T15:26:12.657Z,60.39
2019-05-11T15:28:48.581Z,60.39
2019-05-11T15:31:23.271Z,60.25
2019-05-11T15:33:57.841Z,58.99
2019-05-11T15:36:30.855Z,58.92
2019-05-11T15:39:08.255Z,57.76
2019-05-11T15:41:42.671Z,57.83
2019-05-11T15:44:18.242Z,56.96
2019-05-11T15:46:52.875Z,56.76
2019-05-11T15:49:28.384Z,55.83
2019-05-11T15:52:02.936Z,55.83
2019-05-11T15:54:35.855Z,56.11
2019-05-11T15:57:09.943Z,56.92
2019-05-11T15:59:44.533Z,56.99
2019-05-11T16:02:18.883Z,57.87
2019-05-11T16:04:51.842Z,58.34
2019-05-11T16:07:28.159Z,58.72
2019-05-11T16:10:02.272Z,57.54
2019-05-11T16:12:39.021Z,56.73
2019-05-11T16:15:13.505Z,57.19
2019-05-11T16:17:48.634Z,57.90
2019-05-11T16:20:21.690Z,57.91
2019-05-11T16:22:55.927Z,58.11
2019-05-11T16:25:28.852Z,58.47
2019-05-11T16:28:01.695Z,59.33
2019-05-11T16:30:37.825Z,59.12
2019-05-11T16:33:11.793Z,59.12
2019-05-11T16:35:46.124Z,59.00
2019-05-11T16:38:20.687Z,59.37
2019-05-11T16:40:54.937Z,59.47
2019-05-11T16:43:28.180Z,60.17
2019-05-11T16:46:02.330Z,60.94
2019-05-11T16:48:38.333Z,60.94
2019-05-11T16:51:12.941Z,61.34
2019-05-11T16:53:48.066Z,61.78
2019-05-11T16:56:22.666Z,61.79
2019-05-11T16:58:58.930Z,61.95
2019-05-11T17:01:33.293Z,62.37
2019-05-11T17:04:07.670Z,62.08
2019-05-11T17:06:42.131Z,62.75
2019-05-11T17:09:18.043Z,63.30
2019-05-11T17:11:52.685Z,63.79
2019-05-11T17:14:28.178Z,63.79
2019-05-11T17:17:02.730Z,64.06
2019-05-11T17:19:43.688Z,63.52
2019-05-11T17:22:12.899Z,63.52
2019-05-11T17:24:48.453Z,63.92
2019-05-11T17:27:22.948Z,63.96
2019-05-11T17:29:55.854Z,64.29
2019-05-11T17:32:30.152Z,64.58
2019-05-11T17:35:04.346Z,65.01
2019-05-11T17:37:38.774Z,65.01
2019-05-11T17:40:12.072Z,65.03
2019-05-11T17:42:48.005Z,65.29
2019-05-11T17:45:22.349Z,65.23
2019-05-11T17:47:58.271Z,65.23
2019-05-11T17:50:32.796Z,65.87
2019-05-11T17:53:05.668Z,65.98
2019-05-11T17:55:40.251Z,66.10
2019-05-11T17:58:15.240Z,66.03
2019-05-11T18:00:49.669Z,66.03
2019-05-11T18:03:24.279Z,66.11
2019-05-11T18:05:59.764Z,67.05
2019-05-11T18:08:34.127Z,67.42
2019-05-11T18:11:08.727Z,67.29
2019-05-11T18:13:45.280Z,67.29
2019-05-11T18:16:19.915Z,67.46
2019-05-11T18:18:54.304Z,67.46
2019-05-11T18:21:28.957Z,67.29
2019-05-11T18:24:03.283Z,67.58
2019-05-11T18:26:38.311Z,67.38
2019-05-11T18:29:12.918Z,67.40
2019-05-11T18:31:45.684Z,67.40
2019-05-11T18:34:19.933Z,66.94
2019-05-11T18:36:54.103Z,67.31
2019-05-11T18:39:28.983Z,67.49
2019-05-11T18:42:03.335Z,68.02
2019-05-11T18:44:38.085Z,68.02
2019-05-11T18:47:13.979Z,68.16
2019-05-11T18:49:50.587Z,68.25
2019-05-11T18:52:29.943Z,68.12
2019-05-11T18:55:08.419Z,68.12
2019-05-11T18:57:45.319Z,67.97
2019-05-11T19:00:22.982Z,68.03
2019-05-11T19:03:00.346Z,67.82
2019-05-11T19:05:39.293Z,67.78
2019-05-11T19:08:13.899Z,67.74
2019-05-11T19:10:48.833Z,67.71
2019-05-11T19:13:24.974Z,67.84
2019-05-11T19:15:59.713Z,67.68
2019-05-11T19:18:42.844Z,67.68
2019-05-11T19:24:06.042Z,67.84
2019-05-11T19:27:50.667Z,68.19
2019-05-11T19:30:28.784Z,68.19
2019-05-11T19:33:10.747Z,68.35
2019-05-11T19:35:43.430Z,68.65
2019-05-11T19:38:19.106Z,68.98
2019-05-11T19:40:58.843Z,69.33
2019-05-11T19:43:35.570Z,69.28
2019-05-11T19:46:12.305Z,70.00
2019-05-11T19:48:48.328Z,70.00
2019-05-11T19:51:24.316Z,70.12
2019-05-11T19:54:00.972Z,70.37
2019-05-11T19:56:38.309Z,70.20
2019-05-11T19:59:14.570Z,70.01
2019-05-11T20:01:51.420Z,69.89
2019-05-11T20:04:28.374Z,69.93
2019-05-11T20:07:04.307Z,69.93
2019-05-11T20:09:41.297Z,69.88
2019-05-11T20:12:18.313Z,69.74
2019-05-11T20:14:54.305Z,69.91
2019-05-11T20:17:30.986Z,69.79
2019-05-11T20:20:08.918Z,69.80
2019-05-11T20:22:44.544Z,69.66
2019-05-11T20:25:23.065Z,69.66
2019-05-11T20:27:59.429Z,69.64
2019-05-11T20:30:37.288Z,69.78
2019-05-11T20:33:13.408Z,69.53
2019-05-11T20:35:49.707Z,69.48
2019-05-11T20:38:25.272Z,69.72
2019-05-11T20:41:02.979Z,69.57
2019-05-11T20:43:41.270Z,69.91
2019-05-11T20:46:19.684Z,69.91
2019-05-11T20:48:53.403Z,69.83
2019-05-11T20:51:35.789Z,69.84
2019-05-11T20:54:08.849Z,69.87
2019-05-11T20:56:47.849Z,69.92
2019-05-11T20:59:28.774Z,69.79
2019-05-11T21:02:03.599Z,69.79
2019-05-11T21:04:38.629Z,70.15
2019-05-11T21:07:13.108Z,70.19
2019-05-11T21:09:48.338Z,70.33
2019-05-11T21:12:22.877Z,70.33
2019-05-11T21:14:58.412Z,70.26
2019-05-11T21:17:32.962Z,70.14
2019-05-11T21:20:08.327Z,70.24
2019-05-11T21:22:42.696Z,70.12
2019-05-11T21:25:18.183Z,69.91
2019-05-11T21:27:52.698Z,70.04
2019-05-11T21:30:27.125Z,70.08
2019-05-11T21:33:02.704Z,70.23
2019-05-11T21:35:38.630Z,69.99
2019-05-11T21:38:11.646Z,70.16
2019-05-11T21:40:48.408Z,70.19
2019-05-11T21:43:22.326Z,70.15
2019-05-11T21:45:58.203Z,70.18
2019-05-11T21:48:32.750Z,70.32
2019-05-11T21:51:05.685Z,70.44
2019-05-11T21:53:40.941Z,70.14
2019-05-11T21:56:15.126Z,70.50
2019-05-11T21:58:49.597Z,70.62
2019-05-11T22:01:23.900Z,70.62
2019-05-11T22:03:59.519Z,70.26
2019-05-11T22:06:34.084Z,69.81
2019-05-11T22:09:09.806Z,70.19
2019-05-11T22:11:42.779Z,70.19
2019-05-11T22:14:16.933Z,69.64
2019-05-11T22:16:50.053Z,69.64
2019-05-11T22:19:23.846Z,70.12
2019-05-11T22:21:58.389Z,69.74
2019-05-11T22:24:32.878Z,69.46
2019-05-11T22:27:08.044Z,69.58
2019-05-11T22:29:41.665Z,69.85
2019-05-11T22:32:17.862Z,69.32
2019-05-11T22:34:50.868Z,69.32
2019-05-11T22:37:24.945Z,69.82
2019-05-11T22:39:57.897Z,69.59
2019-05-11T22:42:30.880Z,69.90
2019-05-11T22:45:05.289Z,69.76
2019-05-11T22:47:39.867Z,69.54
2019-05-11T22:50:12.870Z,70.22
2019-05-11T22:52:48.409Z,69.95
2019-05-11T22:55:22.896Z,70.14
2019-05-11T22:57:57.855Z,70.06
2019-05-11T23:00:44.291Z,69.81
2019-05-11T23:03:19.902Z,70.10
2019-05-11T23:05:54.776Z,70.22
2019-05-11T23:08:29.277Z,70.24
2019-05-11T23:11:03.736Z,70.01
2019-05-11T23:13:38.319Z,69.79
2019-05-11T23:16:12.672Z,69.79
2019-05-11T23:18:48.121Z,70.58
2019-05-11T23:21:22.668Z,70.08
2019-05-11T23:23:58.347Z,70.19
2019-05-11T23:26:32.786Z,70.07
2019-05-11T23:29:08.145Z,70.07
2019-05-11T23:31:42.652Z,70.46
2019-05-11T23:34:17.691Z,70.07
2019-05-11T23:36:50.977Z,69.89
2019-05-11T23:39:24.274Z,70.15
2019-05-11T23:41:58.713Z,69.57
2019-05-11T23:44:33.283Z,69.57
2019-05-11T23:47:07.650Z,69.93
2019-05-11T23:49:42.299Z,70.09
2019-05-11T23:52:18.109Z,70.09
2019-05-11T23:54:52.312Z,70.25
2019-05-11T23:57:26.887Z,70.41
